createdAt,value
2023-02-24T00:02:06.263Z,74.32
2023-02-24T00:04:41.245Z,73.04
2023-02-24T00:07:11.143Z,73.56
2023-02-24T00:09:41.350Z,73.00
2023-02-24T00:12:13.326Z,73.39
2023-02-24T00:14:45.201Z,72.93
2023-02-24T00:17:15.045Z,72.12
2023-02-24T00:19:42.474Z,72.86
2023-02-24T00:22:13.248Z,73.78
2023-02-24T00:24:40.251Z,73.13
2023-02-24T00:27:11.960Z,74.16
2023-02-24T00:29:41.972Z,73.66
2023-02-24T00:32:14.811Z,74.88
2023-02-24T00:34:43.155Z,74.56
2023-02-24T00:37:15.414Z,75.46
2023-02-24T00:39:44.246Z,74.92
2023-02-24T00:42:15.849Z,75.06
2023-02-24T00:44:48.676Z,75.05
2023-02-24T00:47:19.703Z,74.55
2023-02-24T00:49:50.369Z,75.28
2023-02-24T00:52:22.172Z,75.61
2023-02-24T00:54:54.220Z,74.96
2023-02-24T00:57:23.474Z,75.77
2023-02-24T00:59:52.609Z,75.46
2023-02-24T01:02:20.548Z,75.28
2023-02-24T01:04:49.868Z,75.06
2023-02-24T01:07:19.605Z,75.40
2023-02-24T01:09:50.501Z,76.39
2023-02-24T01:12:35.829Z,75.85
2023-02-24T01:15:03.156Z,76.41
2023-02-24T01:17:35.915Z,77.46
2023-02-24T01:20:15.892Z,77.61
2023-02-24T01:22:53.527Z,78.15
2023-02-24T01:25:20.628Z,77.09
2023-02-24T01:27:50.651Z,76.96
2023-02-24T01:30:18.525Z,77.36
2023-02-24T01:32:47.072Z,77.72
2023-02-24T01:35:14.660Z,77.45
2023-02-24T01:37:46.049Z,77.12
2023-02-24T01:40:18.664Z,77.20
2023-02-24T01:42:47.740Z,76.90
2023-02-24T01:45:21.864Z,77.23
2023-02-24T01:47:50.838Z,77.12
2023-02-24T01:50:21.986Z,76.32
2023-02-24T01:52:51.980Z,77.51
2023-02-24T01:55:28.934Z,76.63
2023-02-24T01:58:00.959Z,76.55
2023-02-24T02:00:45.087Z,77.27
2023-02-24T02:03:30.058Z,76.39
2023-02-24T02:06:13.075Z,74.92
2023-02-24T02:08:42.413Z,74.81
2023-02-24T02:11:21.486Z,76.12
2023-02-24T02:13:51.685Z,75.25
2023-02-24T02:16:47.197Z,74.57
2023-02-24T02:19:13.989Z,75.75
2023-02-24T02:22:02.425Z,76.52
2023-02-24T02:24:48.460Z,76.96
2023-02-24T02:27:36.940Z,76.93
2023-02-24T02:30:43.835Z,76.92
2023-02-24T02:33:31.270Z,75.72
2023-02-24T02:36:14.032Z,75.23
2023-02-24T02:38:53.239Z,75.10
2023-02-24T02:42:16.598Z,74.87
2023-02-24T02:45:14.500Z,74.38
2023-02-24T02:48:02.397Z,74.34
2023-02-24T02:50:43.508Z,74.13
2023-02-24T02:53:32.751Z,73.45
2023-02-24T02:56:31.911Z,74.48
2023-02-24T02:59:04.629Z,74.27
2023-02-24T03:01:41.614Z,74.42
2023-02-24T03:04:17.612Z,74.35
2023-02-24T03:06:53.174Z,74.16
2023-02-24T03:09:38.801Z,73.36
2023-02-24T03:12:11.710Z,73.10
2023-02-24T03:14:51.162Z,72.36
2023-02-24T03:17:30.684Z,72.40
2023-02-24T03:20:13.371Z,72.64
2023-02-24T03:23:08.148Z,72.36
2023-02-24T03:25:50.388Z,71.13
2023-02-24T03:28:37.548Z,71.14
2023-02-24T03:31:19.293Z,70.90
2023-02-24T03:34:05.487Z,71.73
2023-02-24T03:36:34.958Z,71.02
2023-02-24T03:39:02.684Z,71.05
2023-02-24T03:41:46.190Z,69.99
2023-02-24T03:44:14.706Z,69.42
2023-02-24T03:46:42.663Z,69.40
2023-02-24T03:49:12.967Z,70.23
2023-02-24T03:51:44.839Z,71.41
2023-02-24T03:54:54.399Z,71.11
2023-02-24T03:58:04.738Z,70.84
2023-02-24T04:00:41.431Z,71.04
2023-02-24T04:03:19.940Z,70.84
2023-02-24T04:06:14.249Z,70.59
2023-02-24T04:09:21.820Z,70.52
2023-02-24T04:12:18.919Z,70.43
2023-02-24T04:15:23.831Z,70.19
2023-02-24T04:18:22.776Z,69.95
2023-02-24T04:20:53.640Z,69.26
2023-02-24T04:23:27.296Z,68.93
2023-02-24T04:25:57.188Z,69.48
2023-02-24T04:28:25.949Z,68.74
2023-02-24T04:31:10.813Z,69.62
2023-02-24T04:33:43.114Z,69.80
2023-02-24T04:36:13.025Z,69.72
2023-02-24T04:38:40.557Z,70.42
2023-02-24T04:41:09.985Z,71.37
2023-02-24T04:43:46.236Z,70.99
2023-02-24T04:46:13.328Z,71.29
2023-02-24T04:48:40.364Z,72.84
2023-02-24T04:51:07.306Z,73.17
2023-02-24T04:53:34.321Z,73.12
2023-02-24T04:56:09.119Z,72.68
2023-02-24T04:58:46.473Z,73.10
2023-02-24T05:01:15.683Z,72.42
2023-02-24T05:03:45.806Z,72.58
2023-02-24T05:06:20.533Z,72.19
2023-02-24T05:08:47.477Z,71.76
2023-02-24T05:11:16.641Z,73.49
2023-02-24T05:13:46.948Z,73.37
2023-02-24T05:16:17.007Z,72.24
2023-02-24T05:18:46.482Z,73.65
2023-02-24T05:21:35.687Z,73.39
2023-02-24T05:24:08.390Z,74.12
2023-02-24T05:26:41.875Z,74.75
2023-02-24T05:29:11.048Z,75.77
2023-02-24T05:31:38.316Z,76.43
2023-02-24T05:34:08.245Z,76.89
2023-02-24T05:36:45.923Z,75.99
2023-02-24T05:39:19.290Z,75.42
2023-02-24T05:41:49.051Z,75.33
2023-02-24T05:44:23.508Z,75.63
2023-02-24T05:46:58.235Z,76.84
2023-02-24T05:49:31.460Z,75.73
2023-02-24T05:52:08.704Z,75.10
2023-02-24T05:54:39.977Z,76.24
2023-02-24T05:57:20.937Z,76.73
2023-02-24T05:59:51.556Z,76.47
2023-02-24T06:02:27.605Z,76.50
2023-02-24T06:04:55.705Z,75.29
2023-02-24T06:07:28.405Z,75.16
2023-02-24T06:09:58.214Z,75.12
2023-02-24T06:12:29.240Z,77.04
2023-02-24T06:14:58.141Z,77.38
2023-02-24T06:17:29.879Z,77.03
2023-02-24T06:19:56.844Z,76.84
2023-02-24T06:22:26.758Z,76.66
2023-02-24T06:24:56.936Z,77.29
2023-02-24T06:27:27.158Z,77.96
2023-02-24T06:29:59.606Z,78.58
2023-02-24T06:32:26.936Z,77.56
2023-02-24T06:34:57.445Z,78.27
2023-02-24T06:37:24.885Z,78.52
2023-02-24T06:39:53.928Z,79.48
2023-02-24T06:42:21.010Z,78.66
2023-02-24T06:44:48.861Z,77.33
2023-02-24T06:47:18.137Z,78.16
2023-02-24T06:49:45.207Z,78.99
2023-02-24T06:52:19.034Z,77.78
2023-02-24T06:54:53.295Z,77.84
2023-02-24T06:57:24.779Z,78.70
2023-02-24T06:59:56.159Z,79.35
2023-02-24T07:02:26.741Z,79.24
2023-02-24T07:04:58.875Z,79.21
2023-02-24T07:07:29.143Z,79.97
2023-02-24T07:09:58.964Z,80.79
2023-02-24T07:12:26.447Z,81.07
2023-02-24T07:14:58.963Z,80.87
2023-02-24T07:17:26.468Z,80.71
2023-02-24T07:19:57.969Z,81.25
2023-02-24T07:22:25.629Z,82.98
2023-02-24T07:25:00.398Z,82.62
2023-02-24T07:27:30.181Z,82.54
2023-02-24T07:29:59.194Z,83.50
2023-02-24T07:32:26.273Z,84.98
2023-02-24T07:34:55.767Z,85.53
2023-02-24T07:37:24.396Z,86.21
2023-02-24T07:39:52.087Z,86.92
2023-02-24T07:42:22.517Z,86.20
2023-02-24T07:44:50.860Z,87.01
2023-02-24T07:47:17.904Z,86.91
2023-02-24T07:49:51.288Z,88.25
2023-02-24T07:52:21.402Z,88.47
2023-02-24T07:54:49.713Z,88.32
2023-02-24T07:57:19.199Z,88.93
2023-02-24T07:59:48.626Z,89.42
2023-02-24T08:02:18.503Z,89.62
2023-02-24T08:04:51.521Z,90.59
2023-02-24T08:07:24.824Z,92.96
2023-02-24T08:10:14.623Z,93.84
2023-02-24T08:12:43.008Z,94.40
2023-02-24T08:15:17.495Z,94.33
2023-02-24T08:17:47.670Z,94.47
2023-02-24T08:20:15.188Z,93.93
2023-02-24T08:22:46.634Z,92.96
2023-02-24T08:25:22.663Z,92.99
2023-02-24T08:28:12.153Z,93.10
2023-02-24T08:30:47.690Z,93.42
2023-02-24T08:33:21.585Z,95.44
2023-02-24T08:36:04.453Z,96.00
2023-02-24T08:38:40.468Z,98.15
2023-02-24T08:41:18.259Z,98.37
2023-02-24T08:43:46.655Z,97.88
2023-02-24T08:46:18.494Z,99.36
2023-02-24T08:48:55.784Z,99.88
2023-02-24T08:51:37.023Z,100.00
2023-02-24T08:54:11.035Z,100.00
2023-02-24T08:56:49.101Z,100.00
2023-02-24T08:59:29.598Z,100.00
2023-02-24T09:02:31.318Z,100.00
2023-02-24T09:05:05.530Z,100.00
2023-02-24T09:07:38.749Z,100.00
2023-02-24T09:10:20.375Z,100.00
2023-02-24T09:12:53.586Z,100.00
2023-02-24T09:15:25.622Z,100.00
2023-02-24T09:18:01.369Z,100.00
2023-02-24T09:20:50.556Z,100.00
2023-02-24T09:23:20.746Z,100.00
2023-02-24T09:25:54.476Z,100.00
2023-02-24T09:28:26.745Z,100.00
2023-02-24T09:31:00.261Z,100.00
2023-02-24T09:33:42.404Z,100.00
2023-02-24T09:36:27.895Z,100.00
2023-02-24T09:38:59.274Z,100.00
2023-02-24T09:42:02.643Z,100.00
2023-02-24T09:44:41.198Z,100.00
2023-02-24T09:47:39.845Z,100.00
2023-02-24T09:50:55.519Z,100.00
2023-02-24T09:53:20.713Z,100.00
2023-02-24T09:56:26.468Z,100.00
2023-02-24T09:59:30.301Z,100.00
2023-02-24T10:02:44.198Z,100.00
2023-02-24T10:05:27.890Z,100.00
2023-02-24T10:08:00.880Z,100.00
2023-02-24T10:10:36.326Z,100.00
2023-02-24T10:13:15.323Z,100.00
2023-02-24T10:15:59.315Z,99.58
2023-02-24T10:18:45.905Z,100.00
2023-02-24T10:21:30.763Z,99.69
2023-02-24T10:24:03.221Z,98.49
2023-02-24T10:26:51.287Z,96.91
2023-02-24T10:29:44.829Z,96.76
2023-02-24T10:32:34.080Z,96.29
2023-02-24T10:35:06.301Z,95.28
2023-02-24T10:37:34.234Z,97.00
2023-02-24T10:40:09.934Z,94.75
2023-02-24T10:42:45.991Z,96.16
2023-02-24T10:45:26.218Z,96.31
2023-02-24T10:47:59.492Z,95.59
2023-02-24T10:50:34.807Z,97.40
2023-02-24T10:53:29.794Z,99.10
2023-02-24T10:56:27.910Z,100.00
2023-02-24T10:59:24.708Z,100.00
2023-02-24T11:01:59.093Z,99.31
2023-02-24T11:05:04.630Z,99.13
2023-02-24T11:07:45.298Z,99.43
2023-02-24T11:10:33.100Z,99.17
2023-02-24T11:13:20.339Z,99.05
2023-02-24T11:16:14.088Z,97.38
2023-02-24T11:18:50.223Z,97.33
2023-02-24T11:21:18.184Z,98.73
2023-02-24T11:24:06.215Z,97.11
2023-02-24T11:26:41.288Z,96.31
2023-02-24T11:29:31.420Z,98.82
2023-02-24T11:32:55.931Z,98.12
2023-02-24T11:35:41.897Z,97.04
2023-02-24T11:38:27.953Z,96.31
2023-02-24T11:41:41.816Z,96.24
2023-02-24T11:44:31.478Z,95.30
2023-02-24T11:47:07.745Z,95.96
2023-02-24T11:50:24.612Z,96.73
2023-02-24T11:52:54.749Z,95.87
2023-02-24T11:55:36.143Z,96.15
2023-02-24T11:58:38.125Z,95.88
2023-02-24T12:01:19.667Z,96.76
2023-02-24T12:04:06.967Z,95.19
2023-02-24T12:06:44.084Z,95.69
2023-02-24T12:09:20.454Z,96.80
2023-02-24T12:12:20.128Z,97.25
2023-02-24T12:14:57.357Z,98.05
2023-02-24T12:17:49.495Z,97.42
2023-02-24T12:20:30.609Z,96.69
2023-02-24T12:23:15.666Z,96.87
2023-02-24T12:26:13.438Z,98.31
2023-02-24T12:29:01.641Z,97.24
2023-02-24T12:31:53.456Z,98.89
2023-02-24T12:34:50.132Z,98.73
2023-02-24T12:37:24.479Z,99.78
2023-02-24T12:40:15.942Z,100.00
2023-02-24T12:42:50.947Z,100.00
2023-02-24T12:45:46.254Z,98.34
2023-02-24T12:49:00.179Z,98.93
2023-02-24T12:51:45.886Z,99.26
2023-02-24T12:54:54.516Z,97.93
2023-02-24T12:58:02.616Z,97.42
2023-02-24T13:01:00.097Z,98.89
2023-02-24T13:03:54.849Z,97.68
2023-02-24T13:07:01.436Z,97.50
2023-02-24T13:09:45.251Z,97.25
2023-02-24T13:12:20.967Z,96.57
2023-02-24T13:14:48.477Z,98.06
2023-02-24T13:17:20.043Z,97.89
2023-02-24T13:19:48.668Z,97.47
2023-02-24T13:22:18.755Z,96.89
2023-02-24T13:24:56.666Z,96.61
2023-02-24T13:27:29.384Z,96.68
2023-02-24T13:30:01.139Z,96.50
2023-02-24T13:32:32.365Z,97.13
2023-02-24T13:35:16.386Z,96.94
2023-02-24T13:37:47.267Z,96.49
2023-02-24T13:40:22.367Z,97.58
2023-02-24T13:43:01.457Z,98.21
2023-02-24T13:45:39.778Z,98.89
2023-02-24T13:48:45.513Z,98.42
2023-02-24T13:51:12.364Z,97.37
2023-02-24T13:54:16.609Z,96.62
2023-02-24T13:56:52.689Z,97.02
2023-02-24T14:00:12.174Z,95.16
2023-02-24T14:02:44.209Z,95.72
2023-02-24T14:05:30.135Z,95.25
2023-02-24T14:07:57.964Z,95.78
2023-02-24T14:10:29.264Z,95.30
2023-02-24T14:13:19.353Z,93.49
2023-02-24T14:15:47.666Z,94.41
2023-02-24T14:18:26.659Z,94.20
2023-02-24T14:20:56.261Z,95.50
2023-02-24T14:23:35.417Z,94.86
2023-02-24T14:26:08.353Z,93.62
2023-02-24T14:28:39.685Z,96.12
2023-02-24T14:31:15.040Z,97.49
2023-02-24T14:33:48.275Z,98.87
2023-02-24T14:36:21.345Z,99.01
2023-02-24T14:39:12.410Z,97.44
2023-02-24T14:41:42.048Z,96.92
2023-02-24T14:44:24.184Z,96.63
2023-02-24T14:46:57.401Z,96.32
2023-02-24T14:49:28.351Z,96.00
2023-02-24T14:52:28.754Z,95.20
2023-02-24T14:55:02.104Z,95.41
2023-02-24T14:57:35.108Z,96.52
2023-02-24T15:00:26.639Z,95.83
2023-02-24T15:03:32.074Z,96.10
2023-02-24T15:06:07.032Z,97.15
2023-02-24T15:08:48.774Z,96.78
2023-02-24T15:11:15.702Z,97.36
2023-02-24T15:13:53.099Z,97.53
2023-02-24T15:16:24.452Z,97.48
2023-02-24T15:18:55.692Z,97.83
2023-02-24T15:21:31.693Z,97.93
2023-02-24T15:24:18.999Z,98.74
2023-02-24T15:27:01.511Z,97.73
2023-02-24T15:29:31.196Z,97.59
2023-02-24T15:32:00.878Z,96.55
2023-02-24T15:34:36.076Z,96.11
2023-02-24T15:37:15.729Z,97.30
2023-02-24T15:39:44.480Z,98.63
2023-02-24T15:42:33.577Z,97.50
2023-02-24T15:45:03.529Z,96.42
2023-02-24T15:47:43.775Z,95.17
2023-02-24T15:50:12.832Z,94.67
2023-02-24T15:52:41.502Z,94.73
2023-02-24T15:55:15.271Z,96.19
2023-02-24T15:57:42.879Z,97.21
2023-02-24T16:00:17.946Z,96.37
2023-02-24T16:02:45.617Z,98.59
2023-02-24T16:05:16.710Z,98.44
2023-02-24T16:07:48.920Z,98.36
2023-02-24T16:10:24.812Z,97.87
2023-02-24T16:12:56.192Z,96.97
2023-02-24T16:15:31.078Z,96.88
2023-02-24T16:18:02.298Z,97.63
2023-02-24T16:20:31.777Z,96.99
2023-02-24T16:23:04.271Z,96.00
2023-02-24T16:25:40.606Z,96.54
2023-02-24T16:28:13.442Z,96.04
2023-02-24T16:30:40.583Z,95.95
2023-02-24T16:33:13.569Z,95.61
2023-02-24T16:35:44.738Z,94.91
2023-02-24T16:38:15.176Z,94.91
2023-02-24T16:40:47.062Z,95.34
2023-02-24T16:43:18.771Z,96.02
2023-02-24T16:45:46.357Z,95.67
2023-02-24T16:48:24.316Z,95.34
2023-02-24T16:50:51.674Z,94.15
2023-02-24T16:53:22.808Z,94.66
2023-02-24T16:55:52.978Z,94.86
2023-02-24T16:58:23.568Z,96.08
2023-02-24T17:00:53.691Z,95.44
2023-02-24T17:03:29.940Z,94.81
2023-02-24T17:05:59.268Z,95.01
2023-02-24T17:08:31.172Z,95.39
2023-02-24T17:11:00.751Z,95.19
2023-02-24T17:13:27.734Z,94.83
2023-02-24T17:15:58.034Z,94.34
2023-02-24T17:18:28.117Z,93.74
2023-02-24T17:20:57.641Z,94.01
2023-02-24T17:23:27.621Z,93.65
2023-02-24T17:26:03.626Z,92.46
2023-02-24T17:28:33.565Z,93.62
2023-02-24T17:31:00.646Z,93.61
2023-02-24T17:33:28.794Z,92.57
2023-02-24T17:35:55.870Z,91.80
2023-02-24T17:38:27.476Z,91.95
2023-02-24T17:40:57.526Z,92.38
2023-02-24T17:43:27.149Z,93.63
2023-02-24T17:45:54.853Z,93.44
2023-02-24T17:48:24.862Z,93.70
2023-02-24T17:50:52.149Z,94.13
2023-02-24T17:53:21.647Z,93.95
2023-02-24T17:56:02.344Z,92.90
2023-02-24T17:58:33.363Z,92.04
2023-02-24T18:01:05.645Z,91.58
2023-02-24T18:03:37.284Z,91.30
2023-02-24T18:06:12.093Z,91.02
2023-02-24T18:08:42.345Z,89.54
2023-02-24T18:11:14.374Z,90.01
2023-02-24T18:13:41.462Z,90.67
2023-02-24T18:16:14.532Z,91.56
2023-02-24T18:18:41.604Z,91.08
2023-02-24T18:21:11.141Z,90.25
2023-02-24T18:23:41.321Z,90.41
2023-02-24T18:26:11.777Z,90.21
2023-02-24T18:28:39.123Z,91.10
2023-02-24T18:31:18.874Z,89.43
2023-02-24T18:33:46.293Z,88.85
2023-02-24T18:36:15.200Z,88.92
2023-02-24T18:38:42.521Z,88.46
2023-02-24T18:41:23.546Z,87.30
2023-02-24T18:43:56.014Z,87.38
2023-02-24T18:46:24.929Z,87.30
2023-02-24T18:48:59.008Z,87.72
2023-02-24T18:51:29.319Z,86.75
2023-02-24T18:54:01.555Z,85.50
2023-02-24T18:56:31.213Z,85.56
2023-02-24T18:59:02.500Z,85.97
2023-02-24T19:01:32.670Z,87.11
2023-02-24T19:04:00.791Z,86.74
2023-02-24T19:06:30.978Z,87.14
2023-02-24T19:09:00.292Z,87.73
2023-02-24T19:11:29.820Z,88.64
2023-02-24T19:13:58.373Z,88.06
2023-02-24T19:16:26.040Z,89.53
2023-02-24T19:18:56.461Z,89.24
2023-02-24T19:21:24.841Z,88.80
2023-02-24T19:23:54.486Z,89.05
2023-02-24T19:26:30.004Z,89.70
2023-02-24T19:28:58.680Z,89.44
2023-02-24T19:31:29.236Z,88.92
2023-02-24T19:34:05.344Z,89.24
2023-02-24T19:36:34.934Z,89.03
2023-02-24T19:39:05.839Z,89.70
2023-02-24T19:41:38.511Z,89.47
2023-02-24T19:44:07.619Z,87.59
2023-02-24T19:46:36.344Z,88.21
2023-02-24T19:49:04.354Z,87.56
2023-02-24T19:51:31.403Z,87.85
2023-02-24T19:54:03.302Z,86.62
2023-02-24T19:56:35.346Z,86.36
2023-02-24T19:59:05.514Z,86.47
2023-02-24T20:01:32.780Z,86.36
2023-02-24T20:04:02.917Z,86.02
2023-02-24T20:06:43.026Z,85.86
2023-02-24T20:09:17.233Z,86.12
2023-02-24T20:11:45.779Z,85.14
2023-02-24T20:14:17.555Z,85.39
2023-02-24T20:16:47.864Z,85.72
2023-02-24T20:19:15.537Z,85.19
2023-02-24T20:21:49.966Z,85.90
2023-02-24T20:24:20.781Z,85.56
2023-02-24T20:26:52.441Z,85.82
2023-02-24T20:29:25.065Z,84.92
2023-02-24T20:31:52.646Z,85.44
2023-02-24T20:34:22.462Z,86.32
2023-02-24T20:36:49.561Z,87.17
2023-02-24T20:39:19.751Z,86.22
2023-02-24T20:41:51.894Z,86.50
2023-02-24T20:44:19.072Z,86.68
2023-02-24T20:46:46.428Z,85.79
2023-02-24T20:49:17.545Z,86.37
2023-02-24T20:51:47.477Z,85.20
2023-02-24T20:54:19.350Z,86.28
2023-02-24T20:56:48.822Z,86.12
2023-02-24T20:59:22.121Z,85.63
2023-02-24T21:01:50.927Z,86.36
2023-02-24T21:04:20.931Z,84.56
2023-02-24T21:06:54.332Z,85.66
2023-02-24T21:09:21.276Z,86.87
2023-02-24T21:11:50.848Z,85.81
2023-02-24T21:14:17.880Z,86.25
2023-02-24T21:16:47.159Z,85.88
2023-02-24T21:19:14.070Z,86.79
2023-02-24T21:21:40.953Z,88.07
2023-02-24T21:24:08.438Z,88.40
2023-02-24T21:26:35.534Z,88.07
2023-02-24T21:29:02.768Z,90.06
2023-02-24T21:31:29.881Z,89.30
2023-02-24T21:33:57.035Z,89.92
2023-02-24T21:36:26.206Z,91.03
2023-02-24T21:38:54.107Z,90.51
2023-02-24T21:41:22.103Z,91.25
2023-02-24T21:43:55.328Z,91.72
2023-02-24T21:46:28.221Z,92.66
2023-02-24T21:48:57.696Z,94.17
2023-02-24T21:51:26.893Z,92.89
2023-02-24T21:53:57.286Z,91.83
2023-02-24T21:56:30.460Z,91.32
2023-02-24T21:59:03.879Z,91.31
2023-02-24T22:01:37.197Z,92.75
2023-02-24T22:04:10.415Z,93.46
2023-02-24T22:06:39.776Z,94.45
2023-02-24T22:09:10.235Z,93.09
2023-02-24T22:11:43.137Z,94.39
2023-02-24T22:14:12.543Z,94.79
2023-02-24T22:16:40.651Z,93.99
2023-02-24T22:19:07.896Z,92.30
2023-02-24T22:21:34.937Z,92.33
2023-02-24T22:24:04.008Z,92.76
2023-02-24T22:26:33.987Z,92.34
2023-02-24T22:29:04.884Z,91.94
2023-02-24T22:31:34.483Z,90.75
2023-02-24T22:34:01.839Z,90.08
2023-02-24T22:36:33.609Z,88.62
2023-02-24T22:39:01.863Z,89.11
2023-02-24T22:41:33.391Z,89.00
2023-02-24T22:44:04.488Z,88.54
2023-02-24T22:46:37.344Z,87.34
2023-02-24T22:49:05.123Z,87.38
2023-02-24T22:51:34.941Z,86.46
2023-02-24T22:54:02.049Z,85.89
2023-02-24T22:56:32.159Z,86.07
2023-02-24T22:59:00.604Z,85.10
2023-02-24T23:01:34.903Z,84.86
2023-02-24T23:04:05.885Z,84.09
2023-02-24T23:06:36.401Z,83.90
2023-02-24T23:09:06.033Z,83.39
2023-02-24T23:11:40.897Z,81.85
2023-02-24T23:14:13.505Z,81.72
2023-02-24T23:16:53.477Z,81.74
2023-02-24T23:19:23.585Z,81.09
2023-02-24T23:21:56.493Z,80.23
2023-02-24T23:24:28.189Z,80.18
2023-02-24T23:26:57.567Z,80.20
2023-02-24T23:29:26.748Z,81.10
2023-02-24T23:31:57.458Z,80.71
2023-02-24T23:34:24.967Z,81.44
2023-02-24T23:36:52.003Z,81.24
2023-02-24T23:39:23.586Z,81.65
2023-02-24T23:41:56.763Z,81.08
2023-02-24T23:44:24.061Z,81.42
2023-02-24T23:46:53.387Z,80.74
2023-02-24T23:49:22.841Z,81.28
2023-02-24T23:51:54.542Z,81.39
2023-02-24T23:54:21.559Z,81.31
2023-02-24T23:56:50.699Z,80.73
2023-02-24T23:59:17.700Z,81.14
